createdAt,value
2019-02-27T00:00:53.190Z,1026.21
2019-02-27T00:01:53.164Z,1026.19
2019-02-27T00:02:53.761Z,1026.20
2019-02-27T00:03:53.121Z,1026.14
2019-02-27T00:04:53.098Z,1026.18
2019-02-27T00:05:53.072Z,1026.16
2019-02-27T00:06:53.053Z,1026.16
2019-02-27T00:07:54.844Z,1026.19
2019-02-27T00:08:52.999Z,1026.13
2019-02-27T00:09:52.980Z,1026.14
2019-02-27T00:10:52.951Z,1026.13
2019-02-27T00:11:52.936Z,1026.11
2019-02-27T00:12:52.917Z,1026.11
2019-02-27T00:13:52.882Z,1026.08
2019-02-27T00:14:52.857Z,1026.10
2019-02-27T00:15:52.832Z,1026.10
2019-02-27T00:16:52.809Z,1026.10
2019-02-27T00:17:52.790Z,1026.06
2019-02-27T00:18:53.739Z,1026.02
2019-02-27T00:19:52.738Z,1026.03
2019-02-27T00:20:52.721Z,1026.04
2019-02-27T00:21:52.690Z,1026.04
2019-02-27T00:22:52.668Z,1026.01
2019-02-27T00:23:56.739Z,1026.02
2019-02-27T00:24:52.629Z,1026.01
2019-02-27T00:25:52.596Z,1026.02
2019-02-27T00:26:52.571Z,1026.00
2019-02-27T00:27:52.548Z,1026.04
2019-02-27T00:28:55.964Z,1026.02
2019-02-27T00:29:52.541Z,1026.01
2019-02-27T00:30:52.479Z,1026.01
2019-02-27T00:31:52.453Z,1025.98
2019-02-27T00:32:52.427Z,1025.98
2019-02-27T00:33:52.402Z,1026.01
2019-02-27T00:34:52.389Z,1025.97
2019-02-27T00:35:52.362Z,1025.97
2019-02-27T00:36:52.341Z,1025.97
2019-02-27T00:37:52.707Z,1025.97
2019-02-27T00:38:52.284Z,1025.96
2019-02-27T00:39:52.262Z,1025.97
2019-02-27T00:40:52.236Z,1025.93
2019-02-27T00:41:52.212Z,1025.95
2019-02-27T00:42:54.456Z,1025.94
2019-02-27T00:43:52.163Z,1025.93
2019-02-27T00:44:52.139Z,1025.91
2019-02-27T00:45:52.120Z,1025.94
2019-02-27T00:46:52.091Z,1025.90
2019-02-27T00:47:53.311Z,1025.87
2019-02-27T00:48:52.042Z,1025.83
2019-02-27T00:49:52.026Z,1025.85
2019-02-27T00:50:52.001Z,1025.82
2019-02-27T00:51:51.969Z,1025.84
2019-02-27T00:52:51.947Z,1025.80
2019-02-27T00:53:51.929Z,1025.81
2019-02-27T00:54:51.897Z,1025.75
2019-02-27T00:55:51.875Z,1025.75
2019-02-27T00:56:51.850Z,1025.75
2019-02-27T00:57:54.348Z,1025.75
2019-02-27T00:58:51.799Z,1025.71
2019-02-27T00:59:51.778Z,1025.73
2019-02-27T01:00:51.753Z,1025.74
2019-02-27T01:01:51.731Z,1025.74
2019-02-27T01:02:53.472Z,1025.73
2019-02-27T01:03:51.678Z,1025.71
2019-02-27T01:04:51.655Z,1025.70
2019-02-27T01:05:51.630Z,1025.74
2019-02-27T01:06:51.614Z,1025.69
2019-02-27T01:07:53.862Z,1025.69
2019-02-27T01:08:51.558Z,1025.70
2019-02-27T01:09:51.533Z,1025.69
2019-02-27T01:10:51.520Z,1025.68
2019-02-27T01:11:51.949Z,1025.64
2019-02-27T01:12:51.468Z,1025.67
2019-02-27T01:13:51.444Z,1025.66
2019-02-27T01:14:51.419Z,1025.63
2019-02-27T01:15:51.388Z,1025.60
2019-02-27T01:16:51.363Z,1025.62
2019-02-27T01:17:51.344Z,1025.59
2019-02-27T01:18:51.315Z,1025.58
2019-02-27T01:19:51.291Z,1025.59
2019-02-27T01:20:51.268Z,1025.61
2019-02-27T01:21:51.261Z,1025.56
2019-02-27T01:22:51.216Z,1025.55
2019-02-27T01:23:51.194Z,1025.57
2019-02-27T01:24:51.181Z,1025.57
2019-02-27T01:25:51.145Z,1025.55
2019-02-27T01:26:51.120Z,1025.55
2019-02-27T01:27:51.105Z,1025.50
2019-02-27T01:28:51.072Z,1025.50
2019-02-27T01:29:51.752Z,1025.45
2019-02-27T01:30:51.034Z,1025.42
2019-02-27T01:31:51.002Z,1025.42
2019-02-27T01:32:50.978Z,1025.41
2019-02-27T01:33:50.963Z,1025.40
2019-02-27T01:34:50.925Z,1025.35
2019-02-27T01:35:52.127Z,1025.32
2019-02-27T01:36:50.875Z,1025.31
2019-02-27T01:37:50.849Z,1025.32
2019-02-27T01:38:50.826Z,1025.27
2019-02-27T01:39:50.804Z,1025.27
2019-02-27T01:40:51.537Z,1025.26
2019-02-27T01:41:50.755Z,1025.29
2019-02-27T01:42:50.737Z,1025.28
2019-02-27T01:43:50.718Z,1025.25
2019-02-27T01:44:50.681Z,1025.24
2019-02-27T01:45:51.890Z,1025.22
2019-02-27T01:46:50.630Z,1025.24
2019-02-27T01:47:50.606Z,1025.19
2019-02-27T01:48:50.588Z,1025.15
2019-02-27T01:49:50.559Z,1025.15
2019-02-27T01:50:54.979Z,1025.16
2019-02-27T01:51:50.507Z,1025.14
2019-02-27T01:52:50.483Z,1025.13
2019-02-27T01:53:50.459Z,1025.17
2019-02-27T01:54:50.434Z,1025.15
2019-02-27T01:55:50.409Z,1025.10
2019-02-27T01:56:50.393Z,1025.10
2019-02-27T01:57:50.358Z,1025.08
2019-02-27T01:58:50.336Z,1025.05
2019-02-27T01:59:51.021Z,1025.04
2019-02-27T02:00:50.288Z,1025.06
2019-02-27T02:01:50.261Z,1025.06
2019-02-27T02:02:50.237Z,1025.07
2019-02-27T02:03:50.211Z,1025.09
2019-02-27T02:04:53.111Z,1025.09
2019-02-27T02:05:50.164Z,1025.12
2019-02-27T02:06:50.148Z,1025.05
2019-02-27T02:07:50.115Z,1025.08
2019-02-27T02:08:50.090Z,1025.01
2019-02-27T02:09:52.149Z,1024.96
2019-02-27T02:10:50.040Z,1024.93
2019-02-27T02:11:50.015Z,1024.93
2019-02-27T02:12:49.992Z,1024.84
2019-02-27T02:13:49.967Z,1024.81
2019-02-27T02:14:54.140Z,1024.82
2019-02-27T02:15:49.916Z,1024.76
2019-02-27T02:16:49.893Z,1024.74
2019-02-27T02:17:49.865Z,1024.68
2019-02-27T02:18:49.844Z,1024.68
2019-02-27T02:19:54.015Z,1024.68
2019-02-27T02:20:49.794Z,1024.68
2019-02-27T02:21:49.768Z,1024.65
2019-02-27T02:22:49.742Z,1024.68
2019-02-27T02:23:49.716Z,1024.60
2019-02-27T02:24:51.900Z,1024.56
2019-02-27T02:25:49.667Z,1024.61
2019-02-27T02:26:49.648Z,1024.60
2019-02-27T02:27:49.619Z,1024.57
2019-02-27T02:28:49.596Z,1024.58
2019-02-27T02:29:52.968Z,1024.56
2019-02-27T02:30:49.545Z,1024.56
2019-02-27T02:31:49.524Z,1024.54
2019-02-27T02:32:52.365Z,1024.50
2019-02-27T02:33:49.470Z,1024.50
2019-02-27T02:34:49.445Z,1024.45
2019-02-27T02:35:50.782Z,1024.46
2019-02-27T02:36:49.395Z,1024.44
2019-02-27T02:37:49.371Z,1024.42
2019-02-27T02:38:49.345Z,1024.42
2019-02-27T02:39:54.260Z,1024.43
2019-02-27T02:40:49.299Z,1024.40
2019-02-27T02:41:49.274Z,1024.40
2019-02-27T02:42:49.255Z,1024.39
2019-02-27T02:43:49.224Z,1024.37
2019-02-27T02:44:49.206Z,1024.33
2019-02-27T02:45:49.171Z,1024.29
2019-02-27T02:46:49.152Z,1024.26
2019-02-27T02:47:49.122Z,1024.23
2019-02-27T02:48:49.100Z,1024.25
2019-02-27T02:49:49.072Z,1024.23
2019-02-27T02:50:54.013Z,1024.26
2019-02-27T02:51:49.024Z,1024.23
2019-02-27T02:52:49.002Z,1024.18
2019-02-27T02:53:49.165Z,1024.22
2019-02-27T02:54:48.960Z,1024.21
2019-02-27T02:55:49.370Z,1024.20
2019-02-27T02:56:48.899Z,1024.17
2019-02-27T02:57:48.874Z,1024.12
2019-02-27T02:58:48.979Z,1024.12
2019-02-27T02:59:48.824Z,1024.08
2019-02-27T03:00:48.801Z,1024.08
2019-02-27T03:01:49.289Z,1024.09
2019-02-27T03:02:48.749Z,1024.08
2019-02-27T03:03:48.743Z,1024.09
2019-02-27T03:04:49.377Z,1024.09
2019-02-27T03:05:48.675Z,1024.00
2019-02-27T03:06:48.661Z,1023.97
2019-02-27T03:07:48.636Z,1023.99
2019-02-27T03:08:54.956Z,1024.01
2019-02-27T03:09:48.579Z,1024.02
2019-02-27T03:10:48.551Z,1024.04
2019-02-27T03:11:54.221Z,1024.01
2019-02-27T03:12:48.520Z,1023.99
2019-02-27T03:13:48.474Z,1024.02
2019-02-27T03:14:53.311Z,1023.98
2019-02-27T03:15:48.425Z,1023.95
2019-02-27T03:16:48.400Z,1023.94
2019-02-27T03:17:53.697Z,1023.88
2019-02-27T03:18:48.354Z,1023.89
2019-02-27T03:19:48.325Z,1023.83
2019-02-27T03:20:51.799Z,1023.85
2019-02-27T03:21:48.274Z,1023.79
2019-02-27T03:22:48.250Z,1023.84
2019-02-27T03:23:52.059Z,1023.81
2019-02-27T03:24:48.219Z,1023.82
2019-02-27T03:25:48.172Z,1023.80
2019-02-27T03:26:51.620Z,1023.79
2019-02-27T03:27:48.126Z,1023.75
2019-02-27T03:28:48.108Z,1023.70
2019-02-27T03:29:52.199Z,1023.69
2019-02-27T03:30:48.078Z,1023.69
2019-02-27T03:31:57.672Z,1023.68
2019-02-27T03:32:48.004Z,1023.66
2019-02-27T03:33:47.982Z,1023.61
2019-02-27T03:34:50.917Z,1023.62
2019-02-27T03:35:47.922Z,1023.66
2019-02-27T03:36:47.896Z,1023.63
2019-02-27T03:37:49.344Z,1023.65
2019-02-27T03:38:47.846Z,1023.57
2019-02-27T03:39:47.823Z,1023.60
2019-02-27T03:40:48.106Z,1023.61
2019-02-27T03:41:47.772Z,1023.58
2019-02-27T03:42:47.750Z,1023.56
2019-02-27T03:43:47.720Z,1023.60
2019-02-27T03:44:47.697Z,1023.59
2019-02-27T03:45:47.668Z,1023.56
2019-02-27T03:46:47.649Z,1023.58
2019-02-27T03:47:51.661Z,1023.59
2019-02-27T03:48:47.597Z,1023.49
2019-02-27T03:49:47.574Z,1023.54
2019-02-27T03:50:49.933Z,1023.53
2019-02-27T03:51:47.524Z,1023.50
2019-02-27T03:52:47.496Z,1023.55
2019-02-27T03:53:47.466Z,1023.51
2019-02-27T03:54:48.474Z,1023.51
2019-02-27T03:55:47.416Z,1023.51
2019-02-27T03:56:47.392Z,1023.48
2019-02-27T03:57:47.364Z,1023.48
2019-02-27T03:58:47.348Z,1023.45
2019-02-27T03:59:47.316Z,1023.40
2019-02-27T04:00:49.848Z,1023.45
2019-02-27T04:01:47.274Z,1023.42
2019-02-27T04:02:47.239Z,1023.47
2019-02-27T04:03:47.213Z,1023.48
2019-02-27T04:04:47.188Z,1023.49
2019-02-27T04:05:47.172Z,1023.51
2019-02-27T04:06:47.147Z,1023.45
2019-02-27T04:07:47.111Z,1023.45
2019-02-27T04:08:47.088Z,1023.42
2019-02-27T04:09:47.063Z,1023.41
2019-02-27T04:10:47.046Z,1023.47
2019-02-27T04:11:47.010Z,1023.43
2019-02-27T04:12:51.361Z,1023.41
2019-02-27T04:13:46.959Z,1023.49
2019-02-27T04:14:46.934Z,1023.49
2019-02-27T04:15:46.918Z,1023.44
2019-02-27T04:16:46.886Z,1023.55
2019-02-27T04:17:51.882Z,1023.49
2019-02-27T04:18:46.838Z,1023.56
2019-02-27T04:19:46.816Z,1023.54
2019-02-27T04:20:50.169Z,1023.55
2019-02-27T04:21:46.756Z,1023.54
2019-02-27T04:22:46.742Z,1023.53
2019-02-27T04:23:48.979Z,1023.60
2019-02-27T04:24:46.681Z,1023.56
2019-02-27T04:25:46.658Z,1023.55
2019-02-27T04:26:46.629Z,1023.56
2019-02-27T04:27:46.605Z,1023.55
2019-02-27T04:28:46.582Z,1023.54
2019-02-27T04:29:46.564Z,1023.51
2019-02-27T04:30:51.019Z,1023.53
2019-02-27T04:31:46.503Z,1023.50
2019-02-27T04:32:48.684Z,1023.47
2019-02-27T04:33:46.455Z,1023.48
2019-02-27T04:34:46.425Z,1023.44
2019-02-27T04:35:46.400Z,1023.44
2019-02-27T04:36:47.176Z,1023.41
2019-02-27T04:37:46.349Z,1023.36
2019-02-27T04:38:46.327Z,1023.40
2019-02-27T04:39:46.302Z,1023.39
2019-02-27T04:40:46.275Z,1023.38
2019-02-27T04:41:46.249Z,1023.38
2019-02-27T04:42:46.224Z,1023.36
2019-02-27T04:43:46.198Z,1023.38
2019-02-27T04:44:46.173Z,1023.37
2019-02-27T04:45:46.888Z,1023.35
2019-02-27T04:46:46.121Z,1023.34
2019-02-27T04:47:46.095Z,1023.34
2019-02-27T04:48:46.068Z,1023.36
2019-02-27T04:49:46.041Z,1023.31
2019-02-27T04:50:46.019Z,1023.33
2019-02-27T04:51:48.127Z,1023.34
2019-02-27T04:52:45.968Z,1023.34
2019-02-27T04:53:45.941Z,1023.35
2019-02-27T04:54:45.921Z,1023.30
2019-02-27T04:55:47.992Z,1023.31
2019-02-27T04:56:45.865Z,1023.32
2019-02-27T04:57:45.838Z,1023.30
2019-02-27T04:58:45.813Z,1023.27
2019-02-27T04:59:45.788Z,1023.26
2019-02-27T05:00:45.762Z,1023.22
2019-02-27T05:01:45.734Z,1023.23
2019-02-27T05:02:45.710Z,1023.22
2019-02-27T05:03:45.685Z,1023.21
2019-02-27T05:04:45.660Z,1023.19
2019-02-27T05:05:45.633Z,1023.18
2019-02-27T05:06:47.364Z,1023.18
2019-02-27T05:07:45.584Z,1023.25
2019-02-27T05:08:45.557Z,1023.22
2019-02-27T05:09:45.531Z,1023.20
2019-02-27T05:10:45.529Z,1023.22
2019-02-27T05:11:48.334Z,1023.19
2019-02-27T05:12:48.281Z,1023.22
2019-02-27T05:13:45.429Z,1023.27
2019-02-27T05:14:45.402Z,1023.23
2019-02-27T05:15:45.377Z,1023.25
2019-02-27T05:16:47.197Z,1023.27
2019-02-27T05:17:45.326Z,1023.22
2019-02-27T05:18:45.301Z,1023.28
2019-02-27T05:19:45.275Z,1023.28
2019-02-27T05:20:45.826Z,1023.22
2019-02-27T05:21:45.224Z,1023.23
2019-02-27T05:22:45.203Z,1023.19
2019-02-27T05:23:45.230Z,1023.18
2019-02-27T05:24:45.149Z,1023.14
2019-02-27T05:25:45.121Z,1023.16
2019-02-27T05:26:45.096Z,1023.16
2019-02-27T05:27:45.070Z,1023.12
2019-02-27T05:28:45.060Z,1023.15
2019-02-27T05:29:45.021Z,1023.21
2019-02-27T05:30:45.790Z,1023.14
2019-02-27T05:31:44.975Z,1023.18
2019-02-27T05:32:44.940Z,1023.22
2019-02-27T05:33:44.920Z,1023.22
2019-02-27T05:34:49.425Z,1023.20
2019-02-27T05:35:44.864Z,1023.18
2019-02-27T05:36:44.838Z,1023.23
2019-02-27T05:37:44.823Z,1023.23
2019-02-27T05:38:44.787Z,1023.23
2019-02-27T05:39:44.761Z,1023.23
2019-02-27T05:40:44.734Z,1023.22
2019-02-27T05:41:44.708Z,1023.20
2019-02-27T05:42:44.680Z,1023.22
2019-02-27T05:43:47.546Z,1023.26
2019-02-27T05:44:44.630Z,1023.28
2019-02-27T05:45:44.606Z,1023.28
2019-02-27T05:46:44.579Z,1023.29
2019-02-27T05:47:45.802Z,1023.30
2019-02-27T05:48:44.528Z,1023.32
2019-02-27T05:49:44.556Z,1023.30
2019-02-27T05:50:44.523Z,1023.30
2019-02-27T05:51:44.450Z,1023.27
2019-02-27T05:52:48.389Z,1023.29
2019-02-27T05:53:44.404Z,1023.31
2019-02-27T05:54:44.371Z,1023.34
2019-02-27T05:55:44.346Z,1023.33
2019-02-27T05:56:44.323Z,1023.29
2019-02-27T05:57:44.294Z,1023.27
2019-02-27T05:58:44.268Z,1023.24
2019-02-27T05:59:44.242Z,1023.20
2019-02-27T06:00:44.217Z,1023.20
2019-02-27T06:01:44.191Z,1023.19
2019-02-27T06:02:45.020Z,1023.15
2019-02-27T06:03:44.140Z,1023.14
2019-02-27T06:04:44.113Z,1023.10
2019-02-27T06:05:49.559Z,1023.06
2019-02-27T06:06:45.718Z,1023.04
2019-02-27T06:07:44.044Z,1023.02
2019-02-27T06:08:44.013Z,1023.03
2019-02-27T06:09:44.578Z,1023.04
2019-02-27T06:10:43.960Z,1023.05
2019-02-27T06:11:43.944Z,1023.04
2019-02-27T06:12:43.908Z,1023.03
2019-02-27T06:13:45.000Z,1023.08
2019-02-27T06:14:43.854Z,1023.01
2019-02-27T06:15:43.834Z,1023.03
2019-02-27T06:16:43.805Z,1023.04
2019-02-27T06:17:48.296Z,1023.08
2019-02-27T06:18:43.759Z,1023.03
2019-02-27T06:19:43.739Z,1023.07
2019-02-27T06:20:43.700Z,1023.05
2019-02-27T06:21:43.673Z,1023.05
2019-02-27T06:22:43.658Z,1023.02
2019-02-27T06:23:43.622Z,1023.02
2019-02-27T06:24:45.731Z,1023.02
2019-02-27T06:25:43.571Z,1023.01
2019-02-27T06:26:43.545Z,1023.00
2019-02-27T06:27:43.532Z,1023.02
2019-02-27T06:28:43.494Z,1023.03
2019-02-27T06:29:43.469Z,1023.01
2019-02-27T06:30:43.440Z,1023.03
2019-02-27T06:31:43.414Z,1023.06
2019-02-27T06:32:43.389Z,1023.05
2019-02-27T06:33:45.780Z,1023.01
2019-02-27T06:34:43.342Z,1022.98
2019-02-27T06:35:43.320Z,1022.99
2019-02-27T06:36:43.295Z,1022.98
2019-02-27T06:37:43.259Z,1022.94
2019-02-27T06:38:43.242Z,1022.94
2019-02-27T06:39:43.213Z,1022.93
2019-02-27T06:40:43.184Z,1022.91
2019-02-27T06:41:43.155Z,1022.90
2019-02-27T06:42:43.131Z,1022.84
2019-02-27T06:43:43.105Z,1022.84
2019-02-27T06:44:43.128Z,1022.86
2019-02-27T06:45:45.370Z,1022.84
2019-02-27T06:46:44.525Z,1022.93
2019-02-27T06:47:43.004Z,1022.92
2019-02-27T06:48:44.048Z,1022.90
2019-02-27T06:49:42.961Z,1022.87
2019-02-27T06:50:42.923Z,1022.88
2019-02-27T06:51:42.906Z,1022.89
2019-02-27T06:52:43.118Z,1022.88
2019-02-27T06:53:42.856Z,1022.84
2019-02-27T06:54:42.821Z,1022.86
2019-02-27T06:55:42.795Z,1022.84
2019-02-27T06:56:42.772Z,1022.88
2019-02-27T06:57:42.743Z,1022.88
2019-02-27T06:58:42.725Z,1022.92
2019-02-27T06:59:42.690Z,1022.88
2019-02-27T07:00:42.682Z,1022.93
2019-02-27T07:01:45.026Z,1022.95
2019-02-27T07:02:42.614Z,1022.94
2019-02-27T07:03:42.594Z,1022.89
2019-02-27T07:04:42.563Z,1022.91
2019-02-27T07:05:42.538Z,1022.93
2019-02-27T07:06:42.511Z,1022.92
2019-02-27T07:07:42.502Z,1022.90
2019-02-27T07:08:42.460Z,1022.94
2019-02-27T07:09:45.522Z,1022.92
2019-02-27T07:10:42.407Z,1022.94
2019-02-27T07:11:44.998Z,1022.94
2019-02-27T07:12:42.361Z,1022.94
2019-02-27T07:13:42.330Z,1022.94
2019-02-27T07:14:42.302Z,1022.91
2019-02-27T07:15:47.909Z,1022.88
2019-02-27T07:16:42.254Z,1022.89
2019-02-27T07:17:42.246Z,1022.84
2019-02-27T07:18:42.470Z,1022.82
2019-02-27T07:19:42.183Z,1022.80
2019-02-27T07:20:42.156Z,1022.80
2019-02-27T07:21:42.125Z,1022.82
2019-02-27T07:22:45.495Z,1022.75
2019-02-27T07:23:42.072Z,1022.77
2019-02-27T07:24:42.051Z,1022.78
2019-02-27T07:25:42.786Z,1022.77
2019-02-27T07:26:41.996Z,1022.77
2019-02-27T07:27:41.989Z,1022.74
2019-02-27T07:28:43.506Z,1022.78
2019-02-27T07:29:42.918Z,1022.77
2019-02-27T07:30:42.481Z,1022.78
2019-02-27T07:31:41.868Z,1022.80
2019-02-27T07:32:41.850Z,1022.81
2019-02-27T07:33:41.817Z,1022.86
2019-02-27T07:34:41.791Z,1022.86
2019-02-27T07:35:41.770Z,1022.86
2019-02-27T07:36:41.744Z,1022.85
2019-02-27T07:37:41.718Z,1022.87
2019-02-27T07:38:41.692Z,1022.88
2019-02-27T07:39:41.667Z,1022.94
2019-02-27T07:40:43.029Z,1022.94
2019-02-27T07:41:41.616Z,1022.94
2019-02-27T07:42:41.605Z,1022.91
2019-02-27T07:43:41.571Z,1022.92
2019-02-27T07:44:42.261Z,1022.89
2019-02-27T07:45:42.765Z,1022.91
2019-02-27T07:46:41.490Z,1022.88
2019-02-27T07:47:41.465Z,1022.90
2019-02-27T07:48:41.439Z,1022.88
2019-02-27T07:49:41.419Z,1022.89
2019-02-27T07:50:41.389Z,1022.90
2019-02-27T07:51:41.369Z,1022.86
2019-02-27T07:52:41.339Z,1022.79
2019-02-27T07:53:41.317Z,1022.78
2019-02-27T07:54:41.286Z,1022.74
2019-02-27T07:55:41.263Z,1022.75
2019-02-27T07:56:41.237Z,1022.77
2019-02-27T07:57:41.213Z,1022.79
2019-02-27T07:58:41.187Z,1022.75
2019-02-27T07:59:41.163Z,1022.78
2019-02-27T08:00:42.769Z,1022.76
2019-02-27T08:01:43.978Z,1022.77
2019-02-27T08:02:41.085Z,1022.79
2019-02-27T08:03:44.907Z,1022.82
2019-02-27T08:04:41.037Z,1022.87
2019-02-27T08:05:41.019Z,1022.86
2019-02-27T08:06:41.587Z,1022.86
2019-02-27T08:07:40.960Z,1022.88
2019-02-27T08:08:40.937Z,1022.86
2019-02-27T08:09:40.918Z,1022.86
2019-02-27T08:10:40.895Z,1022.85
2019-02-27T08:11:40.861Z,1022.87
2019-02-27T08:12:40.842Z,1022.86
2019-02-27T08:13:40.810Z,1022.89
2019-02-27T08:14:40.800Z,1022.94
2019-02-27T08:15:40.761Z,1022.94
2019-02-27T08:16:40.743Z,1022.97
2019-02-27T08:17:40.711Z,1022.94
2019-02-27T08:18:40.688Z,1022.97
2019-02-27T08:19:42.832Z,1022.94
2019-02-27T08:20:40.640Z,1022.94
2019-02-27T08:21:40.620Z,1022.90
2019-02-27T08:22:40.598Z,1022.90
2019-02-27T08:23:40.569Z,1022.87
2019-02-27T08:24:40.540Z,1022.87
2019-02-27T08:25:40.521Z,1022.84
2019-02-27T08:26:40.492Z,1022.88
2019-02-27T08:27:43.073Z,1022.82
2019-02-27T08:28:40.454Z,1022.85
2019-02-27T08:29:40.428Z,1022.85
2019-02-27T08:30:40.391Z,1022.87
2019-02-27T08:31:40.367Z,1022.87
2019-02-27T08:32:40.344Z,1022.77
2019-02-27T08:33:40.373Z,1022.80
2019-02-27T08:34:40.295Z,1022.76
2019-02-27T08:35:40.274Z,1022.73
2019-02-27T08:36:40.245Z,1022.67
2019-02-27T08:37:40.222Z,1022.66
2019-02-27T08:38:40.248Z,1022.62
2019-02-27T08:39:40.170Z,1022.59
2019-02-27T08:40:40.152Z,1022.59
2019-02-27T08:41:40.124Z,1022.55
2019-02-27T08:42:40.564Z,1022.59
2019-02-27T08:43:41.218Z,1022.55
2019-02-27T08:44:40.058Z,1022.56
2019-02-27T08:45:40.040Z,1022.58
2019-02-27T08:46:40.005Z,1022.55
2019-02-27T08:47:40.869Z,1022.55
2019-02-27T08:48:39.971Z,1022.53
2019-02-27T08:49:39.926Z,1022.51
2019-02-27T08:50:39.903Z,1022.52
2019-02-27T08:51:42.006Z,1022.54
2019-02-27T08:52:39.853Z,1022.52
2019-02-27T08:53:39.829Z,1022.49
2019-02-27T08:54:39.805Z,1022.48
2019-02-27T08:55:39.832Z,1022.49
2019-02-27T08:56:39.756Z,1022.52
2019-02-27T08:57:39.732Z,1022.46
2019-02-27T08:58:39.708Z,1022.51
2019-02-27T08:59:40.690Z,1022.50
2019-02-27T09:00:39.671Z,1022.58
2019-02-27T09:01:39.636Z,1022.64
2019-02-27T09:02:39.754Z,1022.76
2019-02-27T09:03:39.587Z,1022.84
2019-02-27T09:04:39.567Z,1022.87
2019-02-27T09:05:39.540Z,1022.94
2019-02-27T09:06:39.526Z,1022.94
2019-02-27T09:07:39.494Z,1022.93
2019-02-27T09:08:43.339Z,1022.84
2019-02-27T09:09:39.449Z,1022.88
2019-02-27T09:10:39.427Z,1022.88
2019-02-27T09:11:40.753Z,1022.83
2019-02-27T09:12:40.248Z,1022.81
2019-02-27T09:13:39.363Z,1022.81
2019-02-27T09:14:39.351Z,1022.77
2019-02-27T09:15:41.574Z,1022.80
2019-02-27T09:16:39.314Z,1022.81
2019-02-27T09:17:39.282Z,1022.89
2019-02-27T09:18:39.263Z,1022.85
2019-02-27T09:19:39.262Z,1022.68
2019-02-27T09:20:39.227Z,1022.75
2019-02-27T09:21:39.205Z,1022.85
2019-02-27T09:22:39.187Z,1022.89
2019-02-27T09:23:39.175Z,1022.89
2019-02-27T09:24:39.162Z,1022.93
2019-02-27T09:25:39.140Z,1022.92
2019-02-27T09:26:39.145Z,1022.96
2019-02-27T09:27:39.103Z,1022.89
2019-02-27T09:28:39.084Z,1022.90
2019-02-27T09:29:39.072Z,1022.86
2019-02-27T09:30:39.045Z,1022.87
2019-02-27T09:31:39.043Z,1022.82
2019-02-27T09:32:39.013Z,1022.78
2019-02-27T09:33:39.241Z,1022.80
2019-02-27T09:34:38.986Z,1022.80
2019-02-27T09:35:38.989Z,1022.76
2019-02-27T09:36:43.017Z,1022.77
2019-02-27T09:37:39.521Z,1022.73
2019-02-27T09:38:38.915Z,1022.71
2019-02-27T09:39:38.909Z,1022.68
2019-02-27T09:40:39.685Z,1022.69
2019-02-27T09:41:38.877Z,1022.67
2019-02-27T09:44:08.931Z,1022.64
2019-02-27T09:46:09.251Z,1022.59
2019-02-27T09:47:07.044Z,1022.60
2019-02-27T09:48:02.936Z,1022.63
2019-02-27T09:49:06.872Z,1022.64
2019-02-27T09:50:02.905Z,1022.70
2019-02-27T09:51:02.895Z,1022.71
2019-02-27T09:52:02.874Z,1022.73
2019-02-27T09:53:03.613Z,1022.67
2019-02-27T09:54:02.851Z,1022.71
2019-02-27T09:55:02.836Z,1022.68
2019-02-27T09:56:02.834Z,1022.66
2019-02-27T09:57:02.899Z,1022.63
2019-02-27T09:58:02.793Z,1022.62
2019-02-27T09:59:02.788Z,1022.63
2019-02-27T10:00:03.007Z,1022.63
2019-02-27T10:01:03.231Z,1022.59
2019-02-27T10:02:02.746Z,1022.48
2019-02-27T10:03:02.729Z,1022.48
2019-02-27T10:04:02.717Z,1022.47
2019-02-27T10:05:03.706Z,1022.43
2019-02-27T10:06:02.690Z,1022.41
2019-02-27T10:07:02.678Z,1022.39
2019-02-27T10:08:02.665Z,1022.35
2019-02-27T10:09:02.655Z,1022.38
2019-02-27T10:10:02.648Z,1022.37
2019-02-27T10:11:02.631Z,1022.38
2019-02-27T10:12:02.618Z,1022.31
2019-02-27T10:13:03.339Z,1022.29
2019-02-27T10:14:02.595Z,1022.28
2019-02-27T10:15:02.578Z,1022.26
2019-02-27T10:16:03.730Z,1022.21
2019-02-27T10:17:02.558Z,1022.22
2019-02-27T10:18:02.542Z,1022.15
2019-02-27T10:19:02.629Z,1022.17
2019-02-27T10:20:02.948Z,1022.21
2019-02-27T10:21:02.511Z,1022.20
2019-02-27T10:22:02.494Z,1022.20
2019-02-27T10:23:02.483Z,1022.17
2019-02-27T10:24:04.866Z,1022.17
2019-02-27T10:25:02.455Z,1022.20
2019-02-27T10:26:02.442Z,1022.20
2019-02-27T10:27:02.437Z,1022.20
2019-02-27T10:28:04.393Z,1022.24
2019-02-27T10:29:02.415Z,1022.27
2019-02-27T10:30:11.088Z,1022.27
2019-02-27T10:31:02.390Z,1022.23
2019-02-27T10:32:02.371Z,1022.23
2019-02-27T10:33:03.386Z,1022.20
2019-02-27T10:34:02.350Z,1022.21
2019-02-27T10:35:02.340Z,1022.16
2019-02-27T10:36:03.799Z,1022.16
2019-02-27T10:37:02.417Z,1022.16
2019-02-27T10:38:02.301Z,1022.16
2019-02-27T10:39:02.843Z,1022.12
2019-02-27T10:40:02.294Z,1022.13
2019-02-27T10:41:02.272Z,1022.11
2019-02-27T10:42:02.254Z,1022.09
2019-02-27T10:43:02.261Z,1022.11
2019-02-27T10:44:02.234Z,1022.10
2019-02-27T10:45:02.222Z,1022.08
2019-02-27T10:46:02.213Z,1022.06
2019-02-27T10:47:02.201Z,1022.03
2019-02-27T10:48:02.190Z,1022.02
2019-02-27T10:49:02.186Z,1021.99
2019-02-27T10:50:03.056Z,1021.94
2019-02-27T10:51:02.164Z,1021.95
2019-02-27T10:52:02.146Z,1021.92
2019-02-27T10:53:02.136Z,1021.87
2019-02-27T10:54:05.170Z,1021.85
2019-02-27T10:55:02.121Z,1021.86
2019-02-27T10:56:02.109Z,1021.81
2019-02-27T10:57:02.099Z,1021.77
2019-02-27T10:58:02.083Z,1021.79
2019-02-27T10:59:02.076Z,1021.81
2019-02-27T11:00:02.060Z,1021.80
2019-02-27T11:01:02.049Z,1021.79
2019-02-27T11:02:02.084Z,1021.78
2019-02-27T11:03:02.027Z,1021.74
2019-02-27T11:04:03.098Z,1021.73
2019-02-27T11:05:02.001Z,1021.73
2019-02-27T11:06:01.992Z,1021.68
2019-02-27T11:07:01.979Z,1021.69
2019-02-27T11:08:01.970Z,1021.68
2019-02-27T11:09:04.470Z,1021.68
2019-02-27T11:10:01.954Z,1021.68
2019-02-27T11:11:01.944Z,1021.64
2019-02-27T11:12:01.929Z,1021.63
2019-02-27T11:13:05.518Z,1021.54
2019-02-27T11:14:01.903Z,1021.54
2019-02-27T11:15:01.895Z,1021.54
2019-02-27T11:16:01.888Z,1021.52
2019-02-27T11:17:02.741Z,1021.50
2019-02-27T11:18:05.378Z,1021.46
2019-02-27T11:19:01.845Z,1021.41
2019-02-27T11:20:01.853Z,1021.40
2019-02-27T11:21:01.823Z,1021.37
2019-02-27T11:22:01.820Z,1021.42
2019-02-27T11:23:06.528Z,1021.39
2019-02-27T11:24:01.790Z,1021.36
2019-02-27T11:25:01.778Z,1021.34
2019-02-27T11:26:01.924Z,1021.32
2019-02-27T11:27:05.745Z,1021.21
2019-02-27T11:28:01.743Z,1021.24
2019-02-27T11:29:01.733Z,1021.26
2019-02-27T11:30:03.090Z,1021.19
2019-02-27T11:31:01.718Z,1021.19
2019-02-27T11:32:01.702Z,1021.18
2019-02-27T11:33:01.698Z,1021.15
2019-02-27T11:34:01.675Z,1021.11
2019-02-27T11:35:01.673Z,1021.11
2019-02-27T11:36:03.228Z,1021.08
2019-02-27T11:37:01.646Z,1021.06
2019-02-27T11:38:01.641Z,1021.05
2019-02-27T11:39:01.618Z,1021.03
2019-02-27T11:40:01.616Z,1021.00
2019-02-27T11:41:01.599Z,1020.99
2019-02-27T11:42:01.589Z,1020.99
2019-02-27T11:43:06.366Z,1020.93
2019-02-27T11:44:01.560Z,1020.88
2019-02-27T11:45:01.568Z,1020.94
2019-02-27T11:46:01.539Z,1020.94
2019-02-27T11:47:01.529Z,1020.91
2019-02-27T11:48:01.519Z,1020.89
2019-02-27T11:49:03.191Z,1020.93
2019-02-27T11:50:01.490Z,1020.89
2019-02-27T11:51:01.478Z,1020.88
2019-02-27T11:52:01.480Z,1020.85
2019-02-27T11:53:02.744Z,1020.82
2019-02-27T11:54:01.441Z,1020.79
2019-02-27T11:55:01.430Z,1020.81
2019-02-27T11:56:01.416Z,1020.73
2019-02-27T11:57:01.405Z,1020.71
2019-02-27T11:58:04.423Z,1020.71
2019-02-27T11:59:01.404Z,1020.68
2019-02-27T12:00:01.378Z,1020.66
2019-02-27T12:01:01.367Z,1020.64
2019-02-27T12:02:01.342Z,1020.64
2019-02-27T12:03:01.330Z,1020.58
2019-02-27T12:04:01.330Z,1020.62
2019-02-27T12:05:01.309Z,1020.58
2019-02-27T12:06:01.299Z,1020.57
2019-02-27T12:07:01.287Z,1020.52
2019-02-27T12:08:01.265Z,1020.51